createdAt,value
2019-02-16T00:00:40.187Z,28.40
2019-02-16T00:03:26.110Z,28.30
2019-02-16T00:06:05.943Z,28.40
2019-02-16T00:08:46.044Z,28.50
2019-02-16T00:11:25.333Z,28.40
2019-02-16T00:14:04.518Z,28.60
2019-02-16T00:16:43.965Z,28.50
2019-02-16T00:19:23.358Z,28.50
2019-02-16T00:22:03.458Z,28.50
2019-02-16T00:24:42.755Z,28.70
2019-02-16T00:27:22.194Z,28.70
2019-02-16T00:30:01.298Z,28.60
2019-02-16T00:32:41.655Z,28.80
2019-02-16T00:35:21.945Z,28.70
2019-02-16T00:38:01.383Z,28.70
2019-02-16T00:40:43.852Z,29.00
2019-02-16T00:43:23.014Z,29.00
2019-02-16T00:46:04.461Z,28.90
2019-02-16T00:48:43.681Z,28.90
2019-02-16T00:51:25.885Z,28.70
2019-02-16T00:54:08.236Z,28.70
2019-02-16T00:56:49.109Z,28.80
2019-02-16T00:59:28.400Z,28.90
2019-02-16T01:02:10.190Z,29.00
2019-02-16T01:04:49.962Z,28.90
2019-02-16T01:07:28.887Z,29.00
2019-02-16T01:10:08.659Z,29.10
2019-02-16T01:12:51.561Z,29.30
2019-02-16T01:15:30.497Z,29.30
2019-02-16T01:18:09.737Z,29.40
2019-02-16T01:20:48.463Z,29.50
2019-02-16T01:23:28.783Z,29.40
2019-02-16T01:26:08.009Z,29.30
2019-02-16T01:28:47.626Z,29.60
2019-02-16T01:31:28.077Z,30.00
2019-02-16T01:34:10.370Z,30.10
2019-02-16T01:36:47.636Z,30.10
2019-02-16T01:39:29.067Z,30.00
2019-02-16T01:42:08.704Z,29.80
2019-02-16T01:44:48.825Z,29.70
2019-02-16T01:47:28.919Z,29.40
2019-02-16T01:50:08.430Z,29.40
2019-02-16T01:52:48.116Z,29.70
2019-02-16T01:55:28.334Z,30.00
2019-02-16T01:58:07.960Z,30.60
2019-02-16T02:00:48.162Z,30.60
2019-02-16T02:03:27.435Z,31.10
2019-02-16T02:06:07.086Z,31.30
2019-02-16T02:08:47.053Z,31.70
2019-02-16T02:11:26.052Z,31.90
2019-02-16T02:14:05.049Z,31.20
2019-02-16T02:16:44.147Z,30.80
2019-02-16T02:19:23.191Z,30.70
2019-02-16T02:22:02.243Z,30.90
2019-02-16T02:24:42.717Z,30.90
2019-02-16T02:27:21.993Z,30.70
2019-02-16T02:30:01.128Z,30.70
2019-02-16T02:32:41.646Z,30.70
2019-02-16T02:35:20.694Z,30.60
2019-02-16T02:37:59.805Z,30.70
2019-02-16T02:40:38.919Z,30.50
2019-02-16T02:43:18.186Z,30.70
2019-02-16T02:45:58.319Z,30.80
2019-02-16T02:48:38.070Z,31.00
2019-02-16T02:51:17.769Z,31.10
2019-02-16T02:53:56.904Z,31.10
2019-02-16T02:56:36.151Z,31.60
2019-02-16T02:59:17.496Z,31.90
2019-02-16T03:01:56.833Z,32.20
2019-02-16T03:04:36.028Z,31.60
2019-02-16T03:07:17.593Z,31.60
2019-02-16T03:09:56.931Z,31.10
2019-02-16T03:12:36.209Z,30.90
2019-02-16T03:15:17.447Z,31.50
2019-02-16T03:17:58.232Z,32.50
2019-02-16T03:20:39.448Z,32.50
2019-02-16T03:23:22.471Z,31.90
2019-02-16T03:26:12.128Z,31.90
2019-02-16T03:29:01.039Z,32.00
2019-02-16T03:32:19.219Z,31.70
2019-02-16T03:35:56.256Z,31.90
2019-02-16T03:38:57.704Z,32.10
2019-02-16T03:41:37.421Z,31.90
2019-02-16T03:44:16.486Z,31.60
2019-02-16T03:46:56.750Z,31.80
2019-02-16T03:49:35.839Z,32.00
2019-02-16T03:52:17.471Z,32.30
2019-02-16T03:54:56.809Z,32.30
2019-02-16T03:57:37.192Z,33.10
2019-02-16T04:00:16.580Z,33.10
2019-02-16T04:02:55.910Z,33.10
2019-02-16T04:05:35.935Z,33.50
2019-02-16T04:08:14.869Z,33.10
2019-02-16T04:10:54.326Z,33.00
2019-02-16T04:13:34.036Z,32.50
2019-02-16T04:16:13.684Z,32.80
2019-02-16T04:18:53.272Z,33.00
2019-02-16T04:21:32.468Z,32.30
2019-02-16T04:24:11.589Z,32.20
2019-02-16T04:26:54.704Z,32.30
2019-02-16T04:29:35.162Z,32.10
2019-02-16T04:32:14.836Z,32.00
2019-02-16T04:34:54.924Z,32.20
2019-02-16T04:37:35.555Z,32.00
2019-02-16T04:40:16.061Z,32.00
2019-02-16T04:42:55.278Z,31.70
2019-02-16T04:45:34.576Z,31.80
2019-02-16T04:48:13.905Z,31.90
2019-02-16T04:50:52.972Z,32.00
2019-02-16T04:53:32.904Z,32.00
2019-02-16T04:56:11.833Z,32.10
2019-02-16T04:58:51.638Z,32.20
2019-02-16T05:01:32.054Z,32.60
2019-02-16T05:04:11.202Z,33.10
2019-02-16T05:06:52.572Z,32.90
2019-02-16T05:09:34.273Z,32.70
2019-02-16T05:12:14.630Z,33.00
2019-02-16T05:14:54.874Z,32.60
2019-02-16T05:17:35.755Z,32.50
2019-02-16T05:20:14.881Z,32.90
2019-02-16T05:22:55.092Z,32.90
2019-02-16T05:25:36.388Z,33.50
2019-02-16T05:28:16.624Z,33.50
2019-02-16T05:30:55.536Z,34.10
2019-02-16T05:33:34.557Z,33.50
2019-02-16T05:36:13.631Z,33.50
2019-02-16T05:38:54.786Z,34.00
2019-02-16T05:41:33.633Z,33.60
2019-02-16T05:44:12.951Z,33.90
2019-02-16T05:46:52.382Z,33.80
2019-02-16T05:49:32.790Z,33.60
2019-02-16T05:52:12.959Z,33.30
2019-02-16T05:54:52.379Z,33.60
2019-02-16T05:57:31.487Z,34.10
2019-02-16T06:00:16.005Z,34.20
2019-02-16T06:03:05.106Z,34.40
2019-02-16T06:05:47.281Z,34.10
2019-02-16T06:08:28.921Z,33.90
2019-02-16T06:11:09.156Z,34.00
2019-02-16T06:13:48.385Z,34.00
2019-02-16T06:16:28.563Z,33.70
2019-02-16T06:19:08.410Z,34.10
2019-02-16T06:21:47.678Z,34.00
2019-02-16T06:24:26.760Z,34.10
2019-02-16T06:27:06.424Z,33.90
2019-02-16T06:29:45.992Z,34.40
2019-02-16T06:32:26.288Z,34.60
2019-02-16T06:35:35.151Z,34.30
2019-02-16T06:38:17.324Z,34.60
2019-02-16T06:40:56.494Z,35.10
2019-02-16T06:43:35.303Z,35.00
2019-02-16T06:46:14.619Z,34.90
2019-02-16T06:49:02.798Z,34.60
2019-02-16T06:51:44.166Z,34.80
2019-02-16T06:54:23.534Z,34.80
2019-02-16T06:57:17.180Z,35.00
2019-02-16T06:59:56.550Z,35.00
2019-02-16T07:02:36.684Z,35.10
2019-02-16T07:05:18.791Z,33.90
2019-02-16T07:07:57.778Z,33.50
2019-02-16T07:10:36.948Z,33.70
2019-02-16T07:13:16.207Z,33.50
2019-02-16T07:16:12.900Z,33.80
2019-02-16T07:19:01.351Z,33.30
2019-02-16T07:21:41.064Z,33.20
2019-02-16T07:24:20.297Z,33.20
2019-02-16T07:26:59.556Z,33.00
2019-02-16T07:29:38.679Z,33.50
2019-02-16T07:32:17.930Z,33.60
2019-02-16T07:34:58.062Z,33.40
2019-02-16T07:37:38.155Z,33.90
2019-02-16T07:40:19.180Z,34.00
2019-02-16T07:42:59.587Z,33.90
2019-02-16T07:45:48.359Z,33.90
2019-02-16T07:48:41.174Z,33.60
2019-02-16T07:51:30.946Z,33.10
2019-02-16T07:54:16.388Z,33.00
2019-02-16T07:57:17.379Z,33.50
2019-02-16T08:00:15.345Z,33.70
2019-02-16T08:03:15.909Z,33.50
2019-02-16T08:06:15.518Z,33.60
2019-02-16T08:09:02.902Z,33.50
2019-02-16T08:12:05.444Z,33.30
2019-02-16T08:15:02.502Z,32.90
2019-02-16T08:18:04.205Z,33.10
2019-02-16T08:21:14.161Z,33.00
2019-02-16T08:24:20.839Z,32.60
2019-02-16T08:27:09.412Z,32.60
2019-02-16T08:29:59.672Z,32.10
2019-02-16T08:32:55.725Z,32.30
2019-02-16T08:35:50.792Z,32.30
2019-02-16T08:39:01.621Z,32.00
2019-02-16T08:41:56.376Z,32.10
2019-02-16T08:44:49.097Z,31.60
2019-02-16T08:47:54.332Z,31.80
2019-02-16T08:50:41.715Z,31.80
2019-02-16T08:53:39.987Z,31.70
2019-02-16T08:56:31.495Z,31.70
2019-02-16T08:59:35.527Z,31.90
2019-02-16T09:02:26.429Z,31.70
2019-02-16T09:05:16.594Z,31.60
2019-02-16T09:08:05.736Z,31.70
2019-02-16T09:11:05.872Z,31.30
2019-02-16T09:14:00.932Z,31.20
2019-02-16T09:16:49.549Z,31.30
2019-02-16T09:19:50.502Z,31.30
2019-02-16T09:22:51.358Z,31.00
2019-02-16T09:25:57.989Z,31.20
2019-02-16T09:29:04.100Z,31.30
2019-02-16T09:32:02.168Z,31.20
2019-02-16T09:35:12.736Z,31.20
2019-02-16T09:38:19.928Z,31.30
2019-02-16T09:41:32.169Z,30.80
2019-02-16T09:44:35.265Z,30.80
2019-02-16T09:47:31.231Z,30.70
2019-02-16T09:50:34.416Z,30.90
2019-02-16T09:53:32.821Z,30.90
2019-02-16T09:56:45.550Z,30.80
2019-02-16T09:59:51.194Z,30.70
2019-02-16T10:02:55.346Z,30.70
2019-02-16T10:05:54.580Z,30.80
2019-02-16T10:12:47.614Z,30.50
2019-02-16T10:16:08.265Z,30.60
2019-02-16T10:22:59.151Z,30.00
2019-02-16T10:26:08.978Z,30.00
2019-02-16T10:29:02.779Z,30.00
2019-02-16T10:32:04.949Z,30.20
2019-02-16T10:39:17.847Z,30.10
2019-02-16T10:42:31.039Z,30.00
2019-02-16T10:45:40.884Z,30.00
2019-02-16T10:48:40.301Z,29.80
2019-02-16T10:51:37.997Z,29.80
2019-02-16T10:54:30.813Z,29.70
2019-02-16T11:01:06.388Z,29.50
2019-02-16T11:03:56.309Z,29.50
2019-02-16T11:06:59.492Z,29.60
2019-02-16T11:10:17.612Z,29.40
2019-02-16T11:13:18.883Z,29.30
2019-02-16T11:20:09.118Z,29.10
2019-02-16T11:26:49.084Z,29.30
2019-02-16T11:29:51.822Z,29.10
2019-02-16T11:32:51.426Z,29.10
2019-02-16T11:35:37.382Z,29.20
2019-02-16T11:38:36.648Z,29.10
2019-02-16T11:41:20.034Z,28.90
2019-02-16T11:44:20.545Z,29.00
2019-02-16T11:47:22.483Z,29.20
2019-02-16T11:50:22.813Z,29.30
2019-02-16T11:53:36.016Z,28.90
2019-02-16T11:56:51.650Z,28.90
2019-02-16T12:00:07.620Z,29.20
2019-02-16T12:02:58.129Z,29.30
2019-02-16T12:05:51.589Z,29.00
2019-02-16T12:08:45.877Z,28.90
2019-02-16T12:11:51.761Z,29.10
2019-02-16T12:14:48.984Z,29.20
2019-02-16T12:18:13.104Z,29.00
2019-02-16T12:21:15.543Z,28.80
2019-02-16T12:28:30.551Z,29.00
2019-02-16T12:31:26.273Z,28.60
2019-02-16T12:34:21.720Z,28.80
2019-02-16T12:37:10.558Z,29.00
2019-02-16T12:39:59.654Z,29.00
2019-02-16T12:43:00.663Z,28.80
2019-02-16T12:45:51.337Z,28.70
2019-02-16T12:48:38.617Z,28.90
2019-02-16T12:51:41.989Z,28.90
2019-02-16T12:54:32.309Z,28.90
2019-02-16T13:01:21.739Z,28.90
2019-02-16T13:04:39.101Z,28.90
2019-02-16T13:07:34.197Z,29.00
2019-02-16T13:10:33.360Z,29.00
2019-02-16T13:13:50.434Z,28.90
2019-02-16T13:16:47.509Z,29.00
2019-02-16T13:19:47.391Z,28.80
2019-02-16T13:22:46.374Z,28.80
2019-02-16T13:25:58.831Z,28.90
2019-02-16T13:41:47.206Z,28.90
2019-02-16T13:45:02.427Z,28.90
2019-02-16T13:48:13.023Z,28.80
2019-02-16T13:51:37.832Z,28.80
2019-02-16T13:54:43.620Z,28.80
2019-02-16T13:57:52.445Z,28.70
2019-02-16T14:01:08.085Z,28.80
2019-02-16T14:04:47.227Z,28.90
2019-02-16T14:08:03.439Z,28.80
2019-02-16T14:11:02.835Z,28.80
2019-02-16T14:14:19.758Z,28.80
2019-02-16T14:17:34.826Z,28.80
2019-02-16T14:48:54.225Z,28.80
2019-02-16T14:52:17.266Z,28.90
2019-02-16T14:55:17.988Z,29.00
2019-02-16T14:58:16.281Z,28.90
2019-02-16T15:01:08.055Z,28.90
2019-02-16T15:07:34.045Z,29.00
2019-02-16T15:10:22.311Z,28.80
2019-02-16T15:13:05.687Z,28.80
2019-02-16T15:15:52.359Z,28.90
2019-02-16T15:18:33.605Z,28.80
2019-02-16T15:21:13.834Z,28.80
2019-02-16T15:23:54.647Z,28.60
2019-02-16T15:26:36.869Z,28.70
2019-02-16T15:29:17.120Z,28.80
2019-02-16T15:31:57.624Z,28.60
2019-02-16T15:34:38.072Z,28.60
2019-02-16T15:37:17.517Z,28.70
2019-02-16T15:40:03.577Z,28.90
2019-02-16T15:42:47.075Z,28.80
2019-02-16T15:45:30.536Z,28.70
2019-02-16T15:48:13.368Z,28.70
2019-02-16T15:50:53.397Z,28.80
2019-02-16T15:53:34.100Z,28.80
2019-02-16T15:56:14.994Z,28.70
2019-02-16T15:58:59.818Z,28.70
2019-02-16T16:01:39.986Z,28.60
2019-02-16T16:04:21.957Z,28.80
2019-02-16T16:07:13.405Z,28.80
2019-02-16T16:10:23.310Z,28.60
2019-02-16T16:13:20.357Z,28.70
2019-02-16T16:16:24.362Z,28.80
2019-02-16T16:19:20.298Z,28.70
2019-02-16T16:22:06.907Z,28.50
2019-02-16T16:24:57.574Z,28.60
2019-02-16T16:28:06.113Z,28.70
2019-02-16T16:31:06.688Z,28.80
2019-02-16T16:34:02.692Z,28.50
2019-02-16T16:37:03.861Z,28.50
2019-02-16T16:40:03.623Z,28.70
2019-02-16T16:43:10.981Z,28.70
2019-02-16T16:46:05.967Z,28.70
2019-02-16T16:49:06.895Z,28.60
2019-02-16T16:52:20.951Z,28.60
2019-02-16T16:55:12.339Z,28.80
2019-02-16T16:58:06.954Z,28.80
2019-02-16T17:01:10.047Z,28.60
2019-02-16T17:04:25.640Z,28.60
2019-02-16T17:07:24.820Z,28.60
2019-02-16T17:10:22.686Z,28.60
2019-02-16T17:13:09.912Z,28.50
2019-02-16T17:16:17.007Z,28.50
2019-02-16T17:19:10.820Z,28.50
2019-02-16T17:22:11.324Z,28.60
2019-02-16T17:25:05.465Z,28.70
2019-02-16T17:28:11.910Z,28.60
2019-02-16T17:31:07.087Z,28.50
2019-02-16T17:34:07.335Z,28.50
2019-02-16T17:37:06.195Z,28.60
2019-02-16T17:39:57.954Z,28.70
2019-02-16T17:42:54.677Z,28.60
2019-02-16T17:45:42.438Z,28.60
2019-02-16T17:48:48.251Z,28.70
2019-02-16T17:51:43.867Z,28.70
2019-02-16T17:54:47.184Z,28.60
2019-02-16T17:57:34.618Z,28.50
2019-02-16T18:00:27.182Z,28.50
2019-02-16T18:03:24.616Z,28.60
2019-02-16T18:06:20.236Z,28.60
2019-02-16T18:09:19.266Z,28.50
2019-02-16T18:12:16.699Z,28.60
2019-02-16T18:15:06.618Z,28.70
2019-02-16T18:17:57.836Z,28.50
2019-02-16T18:20:54.022Z,28.40
2019-02-16T18:23:43.721Z,28.50
2019-02-16T18:26:39.832Z,28.70
2019-02-16T18:29:45.300Z,28.60
2019-02-16T18:32:57.999Z,28.60
2019-02-16T18:36:08.164Z,28.60
2019-02-16T18:38:54.645Z,28.80
2019-02-16T18:41:53.700Z,28.90
2019-02-16T18:44:42.761Z,28.60
2019-02-16T18:47:44.463Z,28.50
2019-02-16T18:50:48.821Z,28.60
2019-02-16T18:53:53.185Z,28.70
2019-02-16T18:56:50.283Z,28.70
2019-02-16T18:59:50.202Z,28.50
2019-02-16T19:02:46.902Z,28.60
2019-02-16T19:05:46.917Z,28.70
2019-02-16T19:08:45.865Z,28.70
2019-02-16T19:11:51.968Z,28.50
2019-02-16T19:14:44.381Z,28.50
2019-02-16T19:17:40.319Z,28.40
2019-02-16T19:20:32.419Z,28.50
2019-02-16T19:23:47.925Z,28.50
2019-02-16T19:26:34.315Z,28.50
2019-02-16T19:29:31.727Z,28.50
2019-02-16T19:32:34.987Z,28.50
2019-02-16T19:35:35.621Z,28.60
2019-02-16T19:38:35.736Z,28.60
2019-02-16T19:41:39.455Z,28.40
2019-02-16T19:44:36.904Z,28.50
2019-02-16T19:47:32.573Z,28.50
2019-02-16T19:50:27.264Z,28.40
2019-02-16T19:53:37.476Z,28.30
2019-02-16T19:56:23.796Z,28.30
2019-02-16T19:59:21.905Z,28.50
2019-02-16T20:02:21.363Z,28.50
2019-02-16T20:05:18.325Z,28.40
2019-02-16T20:08:24.629Z,28.40
2019-02-16T20:11:21.936Z,28.40
2019-02-16T20:14:18.812Z,28.50
2019-02-16T20:17:16.033Z,28.30
2019-02-16T20:20:12.067Z,28.20
2019-02-16T20:23:10.352Z,28.30
2019-02-16T20:26:12.146Z,28.50
2019-02-16T20:28:59.756Z,28.40
2019-02-16T20:31:55.254Z,28.30
2019-02-16T20:34:48.190Z,28.30
2019-02-16T20:37:44.960Z,28.50
2019-02-16T20:40:46.571Z,28.60
2019-02-16T20:43:33.343Z,28.30
2019-02-16T20:46:24.057Z,28.20
2019-02-16T20:49:19.880Z,28.30
2019-02-16T20:52:08.118Z,28.40
2019-02-16T20:55:01.498Z,28.30
2019-02-16T20:57:56.226Z,28.20
2019-02-16T21:00:53.108Z,28.20
2019-02-16T21:03:44.165Z,28.40
2019-02-16T21:06:57.041Z,28.40
2019-02-16T21:09:57.882Z,28.30
2019-02-16T21:13:02.103Z,28.30
2019-02-16T21:15:52.379Z,28.30
2019-02-16T21:18:43.276Z,28.20
2019-02-16T21:21:43.763Z,28.30
2019-02-16T21:24:46.966Z,28.20
2019-02-16T21:27:44.320Z,28.30
2019-02-16T21:30:42.465Z,28.40
2019-02-16T21:33:26.904Z,28.40
2019-02-16T21:36:22.905Z,28.40
2019-02-16T21:39:24.226Z,28.30
2019-02-16T21:42:14.100Z,28.30
2019-02-16T21:45:17.200Z,28.30
2019-02-16T21:48:30.197Z,28.40
2019-02-16T21:51:26.025Z,28.30
2019-02-16T21:54:38.534Z,28.30
2019-02-16T21:57:28.851Z,28.30
2019-02-16T22:00:32.945Z,28.30
2019-02-16T22:03:36.788Z,28.30
2019-02-16T22:06:57.872Z,28.20
2019-02-16T22:09:54.306Z,28.20
2019-02-16T22:12:50.949Z,28.40
2019-02-16T22:15:30.029Z,28.50
2019-02-16T22:18:10.153Z,28.30
2019-02-16T22:20:49.349Z,28.10
2019-02-16T22:23:28.995Z,28.20
2019-02-16T22:26:08.247Z,28.30
2019-02-16T22:28:48.365Z,28.20
2019-02-16T22:31:27.407Z,28.10
2019-02-16T22:34:08.528Z,28.10
2019-02-16T22:36:48.703Z,28.30
2019-02-16T22:39:28.836Z,28.30
2019-02-16T22:42:11.053Z,28.10
2019-02-16T22:44:50.928Z,28.10
2019-02-16T22:47:32.266Z,28.30
2019-02-16T22:50:12.357Z,28.30
2019-02-16T22:52:53.952Z,28.20
2019-02-16T22:55:33.251Z,28.10
2019-02-16T22:58:12.372Z,28.10
2019-02-16T23:00:55.395Z,28.20
2019-02-16T23:03:35.880Z,28.30
2019-02-16T23:06:15.159Z,28.10
2019-02-16T23:09:31.737Z,28.00
2019-02-16T23:16:22.527Z,28.20
2019-02-16T23:19:02.881Z,28.20
2019-02-16T23:21:42.542Z,28.00
2019-02-16T23:24:22.530Z,28.20
2019-02-16T23:27:01.649Z,28.30
2019-02-16T23:29:41.514Z,28.20
2019-02-16T23:32:20.662Z,28.10
2019-02-16T23:35:00.407Z,28.00
2019-02-16T23:37:42.319Z,28.10
2019-02-16T23:40:21.855Z,28.30
2019-02-16T23:43:00.821Z,28.30
2019-02-16T23:45:39.974Z,28.20
2019-02-16T23:48:24.668Z,28.10
2019-02-16T23:51:03.414Z,28.10
2019-02-16T23:53:46.136Z,28.30
2019-02-16T23:56:22.668Z,28.40
2019-02-16T23:59:01.632Z,28.40
